createdAt,value
2018-01-10T00:00:18.563Z,8.90
2018-01-10T00:02:46.429Z,8.97
2018-01-10T00:05:14.287Z,8.60
2018-01-10T00:07:44.787Z,7.50
2018-01-10T00:10:21.386Z,8.00
2018-01-10T00:12:51.963Z,9.63
2018-01-10T00:15:24.917Z,9.83
2018-01-10T00:17:52.777Z,11.23
2018-01-10T00:20:20.655Z,12.53
2018-01-10T00:22:50.171Z,10.30
2018-01-10T00:25:18.027Z,11.53
2018-01-10T00:27:47.485Z,10.57
2018-01-10T00:30:19.919Z,12.07
2018-01-10T00:32:49.585Z,11.57
2018-01-10T00:35:19.754Z,12.50
2018-01-10T00:37:49.317Z,17.67
2018-01-10T00:40:17.199Z,12.37
2018-01-10T00:42:46.018Z,17.80
2018-01-10T00:45:14.608Z,12.17
2018-01-10T00:47:44.073Z,13.20
2018-01-10T00:50:12.697Z,14.17
2018-01-10T00:52:42.238Z,12.70
2018-01-10T00:55:10.446Z,13.23
2018-01-10T00:57:38.188Z,12.93
2018-01-10T01:00:08.866Z,13.30
2018-01-10T01:02:41.375Z,12.83
2018-01-10T01:05:09.243Z,11.90
2018-01-10T01:07:37.092Z,13.00
2018-01-10T01:10:04.871Z,13.53
2018-01-10T01:12:32.848Z,14.20
2018-01-10T01:15:00.667Z,11.87
2018-01-10T01:17:29.407Z,14.37
2018-01-10T01:19:59.734Z,12.23
2018-01-10T01:22:27.597Z,10.00
2018-01-10T01:24:55.760Z,11.57
2018-01-10T01:27:25.344Z,11.40
2018-01-10T01:29:56.406Z,15.03
2018-01-10T01:32:24.183Z,11.60
2018-01-10T01:34:51.968Z,22.00
2018-01-10T01:37:21.666Z,16.87
2018-01-10T01:39:52.005Z,12.83
2018-01-10T01:42:19.880Z,12.87
2018-01-10T01:44:47.737Z,11.37
2018-01-10T01:47:23.295Z,11.53
2018-01-10T01:49:51.146Z,10.70
2018-01-10T01:52:19.134Z,13.70
2018-01-10T01:54:47.008Z,12.50
2018-01-10T01:57:14.874Z,12.60
2018-01-10T01:59:44.364Z,10.57
2018-01-10T02:02:12.150Z,10.07
2018-01-10T02:04:40.006Z,12.43
2018-01-10T02:07:08.500Z,11.60
2018-01-10T02:09:36.266Z,12.73
2018-01-10T02:12:04.122Z,14.90
2018-01-10T02:14:33.473Z,11.53
2018-01-10T02:17:03.026Z,12.80
2018-01-10T02:19:32.618Z,10.90
2018-01-10T02:22:01.247Z,14.00
2018-01-10T02:24:32.063Z,11.23
2018-01-10T02:27:01.082Z,11.97
2018-01-10T02:29:28.938Z,12.30
2018-01-10T02:31:59.282Z,10.63
2018-01-10T02:34:27.147Z,9.63
2018-01-10T02:36:54.916Z,8.93
2018-01-10T02:39:23.418Z,11.20
2018-01-10T02:41:51.243Z,11.50
2018-01-10T02:44:20.728Z,13.97
2018-01-10T02:46:51.280Z,9.10
2018-01-10T02:49:19.156Z,12.90
2018-01-10T02:51:47.215Z,14.63
2018-01-10T02:54:21.412Z,11.07
2018-01-10T02:56:50.142Z,12.10
2018-01-10T02:59:18.746Z,9.20
2018-01-10T03:01:46.724Z,9.60
2018-01-10T03:04:16.206Z,8.83
2018-01-10T03:06:44.086Z,11.47
2018-01-10T03:09:13.516Z,10.70
2018-01-10T03:11:43.214Z,10.77
2018-01-10T03:14:11.184Z,10.73
2018-01-10T03:16:39.027Z,10.87
2018-01-10T03:19:09.482Z,10.80
2018-01-10T03:21:37.236Z,9.50
2018-01-10T03:24:05.742Z,10.70
2018-01-10T03:26:34.216Z,12.87
2018-01-10T03:29:04.056Z,11.23
2018-01-10T03:31:38.760Z,14.10
2018-01-10T03:34:14.310Z,14.03
2018-01-10T03:36:43.864Z,10.60
2018-01-10T03:39:14.389Z,12.23
2018-01-10T03:41:46.059Z,12.30
2018-01-10T03:44:13.976Z,12.43
2018-01-10T03:46:41.733Z,12.57
2018-01-10T03:49:09.503Z,12.17
2018-01-10T03:51:37.378Z,10.33
2018-01-10T03:54:10.017Z,11.10
2018-01-10T03:56:37.916Z,13.73
2018-01-10T03:59:10.824Z,15.70
2018-01-10T04:01:40.825Z,11.90
2018-01-10T04:04:09.832Z,11.43
2018-01-10T04:06:37.808Z,10.33
2018-01-10T04:09:11.026Z,10.83
2018-01-10T04:11:39.176Z,11.43
2018-01-10T04:14:06.922Z,12.77
2018-01-10T04:16:36.502Z,11.90
2018-01-10T04:21:44.528Z,11.73
2018-01-10T04:24:15.860Z,8.27
2018-01-10T04:26:44.516Z,13.53
2018-01-10T04:29:14.106Z,11.97
2018-01-10T04:31:42.696Z,11.60
2018-01-10T04:34:10.576Z,9.43
2018-01-10T04:36:41.111Z,12.97
2018-01-10T04:39:08.898Z,8.83
2018-01-10T04:41:36.737Z,9.97
2018-01-10T04:44:08.394Z,13.53
2018-01-10T04:46:36.694Z,9.57
2018-01-10T04:49:04.547Z,12.90
2018-01-10T04:51:32.315Z,10.87
2018-01-10T04:54:00.222Z,10.70
2018-01-10T04:56:29.785Z,12.80
2018-01-10T04:58:57.766Z,15.27
2018-01-10T05:01:28.892Z,11.10
2018-01-10T05:04:00.413Z,10.67
2018-01-10T05:06:29.924Z,12.83
2018-01-10T05:08:57.748Z,9.73
2018-01-10T05:11:26.365Z,13.33
2018-01-10T05:13:54.910Z,13.23
2018-01-10T05:16:23.195Z,16.80
2018-01-10T05:18:50.965Z,13.80
2018-01-10T05:21:18.835Z,10.40
2018-01-10T05:23:46.775Z,12.00
2018-01-10T05:26:14.574Z,11.60
2018-01-10T05:28:44.193Z,11.00
2018-01-10T05:31:12.046Z,10.00
2018-01-10T05:33:44.100Z,11.93
2018-01-10T05:36:11.887Z,11.10
2018-01-10T05:38:42.333Z,12.50
2018-01-10T05:43:44.334Z,12.30
2018-01-10T05:46:12.154Z,10.67
2018-01-10T05:48:39.936Z,12.80
2018-01-10T05:51:07.810Z,12.47
2018-01-10T05:53:35.668Z,16.47
2018-01-10T05:56:03.458Z,23.67
2018-01-10T05:58:31.300Z,15.00
2018-01-10T06:01:00.121Z,17.27
2018-01-10T06:03:27.938Z,16.03
2018-01-10T06:05:55.850Z,15.40
2018-01-10T06:08:25.503Z,17.90
2018-01-10T06:10:53.316Z,13.90
2018-01-10T06:13:21.811Z,16.67
2018-01-10T06:15:49.667Z,13.57
2018-01-10T06:18:20.822Z,18.67
2018-01-10T06:20:48.588Z,15.33
2018-01-10T06:25:53.864Z,13.20
2018-01-10T06:28:21.729Z,13.10
2018-01-10T06:30:51.299Z,11.07
2018-01-10T06:35:55.248Z,14.67
2018-01-10T06:38:23.950Z,12.13
2018-01-10T06:40:52.741Z,10.10
2018-01-10T06:43:20.543Z,13.30
2018-01-10T06:45:56.438Z,12.70
2018-01-10T06:48:27.049Z,12.40
2018-01-10T06:50:56.262Z,12.30
2018-01-10T06:53:24.142Z,8.63
2018-01-10T06:55:52.044Z,13.93
2018-01-10T06:58:20.592Z,15.00
2018-01-10T07:00:50.045Z,12.40
2018-01-10T07:03:25.316Z,13.07
2018-01-10T07:05:53.325Z,16.40
2018-01-10T07:08:22.233Z,13.83
2018-01-10T07:10:50.008Z,11.93
2018-01-10T07:13:17.774Z,13.87
2018-01-10T07:15:45.649Z,15.83
2018-01-10T07:18:13.619Z,15.90
2018-01-10T07:20:41.359Z,14.23
2018-01-10T07:23:09.154Z,14.50
2018-01-10T07:25:38.165Z,14.83
2018-01-10T07:28:05.995Z,14.00
2018-01-10T07:30:35.675Z,14.00
2018-01-10T07:33:03.696Z,14.20
2018-01-10T07:35:31.488Z,14.60
2018-01-10T07:37:59.447Z,13.83
2018-01-10T07:40:28.983Z,19.57
2018-01-10T07:42:59.335Z,14.97
2018-01-10T07:45:27.232Z,17.83
2018-01-10T07:47:55.323Z,15.73
2018-01-10T07:50:23.811Z,15.30
2018-01-10T07:52:51.671Z,14.50
2018-01-10T07:55:19.537Z,14.57
2018-01-10T07:57:47.396Z,14.37
2018-01-10T08:00:15.269Z,13.00
2018-01-10T08:02:43.240Z,17.17
2018-01-10T08:05:13.748Z,10.27
2018-01-10T08:07:43.087Z,14.40
2018-01-10T08:10:11.985Z,13.30
2018-01-10T08:12:40.055Z,13.17
2018-01-10T08:15:09.814Z,12.87
2018-01-10T08:17:39.628Z,13.50
2018-01-10T08:20:09.341Z,11.97
2018-01-10T08:22:37.153Z,11.37
2018-01-10T08:25:06.767Z,13.03
2018-01-10T08:27:36.367Z,19.83
2018-01-10T08:32:42.861Z,14.77
2018-01-10T08:35:11.681Z,14.47
2018-01-10T08:37:42.133Z,15.93
2018-01-10T08:40:18.729Z,14.50
2018-01-10T08:42:46.651Z,14.93
2018-01-10T08:45:14.394Z,13.57
2018-01-10T08:47:44.033Z,14.07
2018-01-10T08:50:13.736Z,12.87
2018-01-10T08:52:41.606Z,11.83
2018-01-10T08:55:12.550Z,12.87
2018-01-10T08:57:40.559Z,15.53
2018-01-10T09:00:08.387Z,17.67
2018-01-10T09:02:36.245Z,14.33
2018-01-10T09:05:04.036Z,14.47
2018-01-10T09:07:32.728Z,11.50
2018-01-10T09:10:00.795Z,15.33
2018-01-10T09:12:31.285Z,16.27
2018-01-10T09:15:01.554Z,13.40
2018-01-10T09:17:32.489Z,14.90
2018-01-10T09:20:01.944Z,18.43
2018-01-10T09:22:29.740Z,19.23
2018-01-10T09:24:57.608Z,11.33
2018-01-10T09:27:25.463Z,17.83
2018-01-10T09:29:54.086Z,17.30
2018-01-10T09:32:21.946Z,16.23
2018-01-10T09:34:52.478Z,17.87
2018-01-10T09:37:21.068Z,15.93
2018-01-10T09:39:48.971Z,15.20
2018-01-10T09:42:16.666Z,15.90
2018-01-10T09:44:46.100Z,17.30
2018-01-10T09:47:15.742Z,21.03
2018-01-10T09:49:43.781Z,14.77
2018-01-10T09:52:13.316Z,15.40
2018-01-10T09:54:41.322Z,18.00
2018-01-10T09:57:12.592Z,16.10
2018-01-10T09:59:40.413Z,19.20
2018-01-10T10:02:09.716Z,17.43
2018-01-10T10:04:39.569Z,13.53
2018-01-10T10:07:07.397Z,14.80
2018-01-10T10:09:35.262Z,17.70
2018-01-10T10:12:03.233Z,23.77
2018-01-10T10:14:31.098Z,15.10
2018-01-10T10:16:58.880Z,18.03
2018-01-10T10:19:26.649Z,17.10
2018-01-10T10:21:54.512Z,17.30
2018-01-10T10:24:22.363Z,18.53
2018-01-10T10:26:51.495Z,20.40
2018-01-10T10:29:21.198Z,20.70
2018-01-10T10:31:50.810Z,22.40
2018-01-10T10:34:22.560Z,18.57
2018-01-10T10:36:51.173Z,18.50
2018-01-10T10:39:19.100Z,19.53
2018-01-10T10:41:48.957Z,22.23
2018-01-10T10:44:20.078Z,20.70
2018-01-10T10:46:49.680Z,21.90
2018-01-10T10:49:17.663Z,20.00
2018-01-10T10:51:45.562Z,20.70
2018-01-10T10:54:15.084Z,24.50
2018-01-10T10:56:42.933Z,26.53
2018-01-10T10:59:11.068Z,24.37
2018-01-10T11:01:48.359Z,21.23
2018-01-10T11:04:23.308Z,24.87
2018-01-10T11:06:51.019Z,24.40
2018-01-10T11:09:19.129Z,25.13
2018-01-10T11:11:46.840Z,24.57
2018-01-10T11:14:14.660Z,26.30
2018-01-10T11:16:42.545Z,23.07
2018-01-10T11:19:17.006Z,24.93
2018-01-10T11:21:44.951Z,22.50
2018-01-10T11:24:13.136Z,22.20
2018-01-10T11:26:44.361Z,25.13
2018-01-10T11:29:17.052Z,24.00
2018-01-10T11:31:44.909Z,23.37
2018-01-10T11:34:12.892Z,25.87
2018-01-10T11:36:42.824Z,22.40
2018-01-10T11:39:12.321Z,25.00
2018-01-10T11:41:40.199Z,24.27
2018-01-10T11:44:08.649Z,26.60
2018-01-10T11:46:36.454Z,26.60
2018-01-10T11:49:06.973Z,26.87
2018-01-10T11:51:34.775Z,27.97
2018-01-10T11:56:30.490Z,26.07
2018-01-10T11:58:58.339Z,27.10
2018-01-10T12:01:33.340Z,25.20
2018-01-10T12:04:01.884Z,23.87
2018-01-10T12:06:29.632Z,27.87
2018-01-10T12:08:57.413Z,30.20
2018-01-10T12:11:25.388Z,25.37
2018-01-10T12:13:55.000Z,27.07
2018-01-10T12:16:24.455Z,25.40
2018-01-10T12:18:54.003Z,30.50
2018-01-10T12:21:23.764Z,31.80
2018-01-10T12:23:53.208Z,27.63
2018-01-10T12:26:23.016Z,28.73
2018-01-10T12:28:53.095Z,25.50
2018-01-10T12:31:20.927Z,27.40
2018-01-10T12:33:50.780Z,30.73
2018-01-10T12:36:20.103Z,34.03
2018-01-10T12:38:48.850Z,35.73
2018-01-10T12:41:18.953Z,29.70
2018-01-10T12:43:48.558Z,28.57
2018-01-10T12:46:16.476Z,32.80
2018-01-10T12:48:44.337Z,33.80
2018-01-10T12:51:13.948Z,30.87
2018-01-10T12:53:41.794Z,27.83
2018-01-10T12:56:12.960Z,31.70
2018-01-10T12:58:48.400Z,37.87
2018-01-10T13:01:16.225Z,32.67
2018-01-10T13:03:44.034Z,37.03
2018-01-10T13:06:12.470Z,30.37
2018-01-10T13:08:40.373Z,32.40
2018-01-10T13:11:15.839Z,29.40
2018-01-10T13:13:43.820Z,34.70
2018-01-10T13:16:13.428Z,33.07
2018-01-10T13:18:41.372Z,32.87
2018-01-10T13:21:13.668Z,33.37
2018-01-10T13:23:43.298Z,32.00
2018-01-10T13:26:14.874Z,37.37
2018-01-10T13:28:44.969Z,36.37
2018-01-10T13:31:14.736Z,36.73
2018-01-10T13:33:47.326Z,38.60
2018-01-10T13:36:16.956Z,35.53
2018-01-10T13:38:45.654Z,44.13
2018-01-10T13:41:13.519Z,31.10
2018-01-10T13:43:45.666Z,34.70
2018-01-10T13:46:16.160Z,39.37
2018-01-10T13:48:44.080Z,34.87
2018-01-10T13:51:13.686Z,30.37
2018-01-10T13:53:43.846Z,30.47
2018-01-10T13:56:11.774Z,34.77
2018-01-10T13:58:42.267Z,34.10
2018-01-10T14:01:11.833Z,37.73
2018-01-10T14:03:41.776Z,33.80
2018-01-10T14:06:09.640Z,36.03
2018-01-10T14:08:39.550Z,33.50
2018-01-10T14:11:07.702Z,42.20
2018-01-10T14:16:09.803Z,50.97
2018-01-10T14:18:37.783Z,46.20
2018-01-10T14:21:05.653Z,47.93
2018-01-10T14:23:33.505Z,40.57
2018-01-10T14:26:01.346Z,40.87
2018-01-10T14:34:56.531Z,49.37
2018-01-10T14:37:26.230Z,48.53
2018-01-10T14:39:54.192Z,62.63
2018-01-10T14:42:22.544Z,56.53
2018-01-10T14:44:51.329Z,67.33
2018-01-10T14:47:20.930Z,58.90
2018-01-10T14:49:50.537Z,44.57
2018-01-10T14:52:20.173Z,43.87
2018-01-10T14:54:51.936Z,43.50
2018-01-10T14:57:22.065Z,46.60
2018-01-10T14:59:49.941Z,45.60
2018-01-10T15:02:18.254Z,52.00
2018-01-10T15:04:48.771Z,53.47
2018-01-10T15:07:33.252Z,48.47
2018-01-10T15:10:01.143Z,50.77
2018-01-10T15:12:30.613Z,48.93
2018-01-10T15:15:00.237Z,43.57
2018-01-10T15:17:37.879Z,44.97
2018-01-10T15:20:06.775Z,68.63
2018-01-10T15:22:34.844Z,57.83
2018-01-10T15:25:03.535Z,50.07
2018-01-10T15:27:31.399Z,45.43
2018-01-10T15:29:59.275Z,35.80
2018-01-10T15:32:33.547Z,37.60
2018-01-10T15:35:03.035Z,41.13
2018-01-10T15:37:30.955Z,46.97
2018-01-10T15:39:58.950Z,42.80
2018-01-10T15:42:28.431Z,37.60
2018-01-10T15:44:56.319Z,43.57
2018-01-10T15:47:32.369Z,39.03
2018-01-10T15:50:00.247Z,39.83
2018-01-10T15:52:28.221Z,51.07
2018-01-10T15:54:56.235Z,38.80
2018-01-10T15:57:24.058Z,37.37
2018-01-10T15:59:51.927Z,35.60
2018-01-10T16:02:20.396Z,37.33
2018-01-10T16:04:48.392Z,38.30
2018-01-10T16:07:16.969Z,44.23
2018-01-10T16:09:44.757Z,37.30
2018-01-10T16:12:12.992Z,40.97
2018-01-10T16:14:40.879Z,35.97
2018-01-10T16:17:10.503Z,34.23
2018-01-10T16:19:40.217Z,49.40
2018-01-10T16:22:08.180Z,43.20
2018-01-10T16:24:37.094Z,38.50
2018-01-10T16:27:04.846Z,39.10
2018-01-10T16:29:32.691Z,52.13
2018-01-10T16:32:00.691Z,53.23
2018-01-10T16:34:28.438Z,52.93
2018-01-10T16:39:32.487Z,53.00
2018-01-10T16:42:00.567Z,55.37
2018-01-10T16:44:28.474Z,56.60
2018-01-10T16:46:58.020Z,49.27
2018-01-10T16:49:38.825Z,87.17
2018-01-10T16:52:08.352Z,67.20
2018-01-10T16:54:38.975Z,64.00
2018-01-10T16:57:08.626Z,49.67
2018-01-10T16:59:38.691Z,75.70
2018-01-10T17:02:06.904Z,68.87
2018-01-10T17:04:42.378Z,83.30
2018-01-10T17:07:10.378Z,61.77
2018-01-10T17:09:38.363Z,79.23
2018-01-10T17:12:06.934Z,83.80
2018-01-10T17:14:39.851Z,58.40
2018-01-10T17:17:09.382Z,52.47
2018-01-10T17:19:38.115Z,44.83
2018-01-10T17:22:06.710Z,69.80
2018-01-10T17:24:38.467Z,65.13
2018-01-10T17:27:15.556Z,63.43
2018-01-10T17:29:49.553Z,64.20
2018-01-10T17:32:20.429Z,48.67
2018-01-10T17:34:51.841Z,80.10
2018-01-10T17:37:22.568Z,60.07
2018-01-10T17:39:50.556Z,53.20
2018-01-10T17:42:18.319Z,58.83
2018-01-10T17:44:52.187Z,72.63
2018-01-10T17:47:26.268Z,52.13
2018-01-10T17:49:58.098Z,59.30
2018-01-10T17:52:25.957Z,66.30
2018-01-10T17:54:53.744Z,78.27
2018-01-10T17:57:22.508Z,88.10
2018-01-10T17:59:52.996Z,50.97
2018-01-10T18:02:21.037Z,57.70
2018-01-10T18:07:23.286Z,51.47
2018-01-10T18:09:52.776Z,68.43
2018-01-10T18:12:27.248Z,64.00
2018-01-10T18:14:57.873Z,56.87
2018-01-10T18:17:38.648Z,47.50
2018-01-10T18:20:06.516Z,67.10
2018-01-10T18:22:36.199Z,65.90
2018-01-10T18:25:04.916Z,72.40
2018-01-10T18:27:42.976Z,79.23
2018-01-10T18:30:12.651Z,74.03
2018-01-10T18:32:44.186Z,61.63
2018-01-10T18:35:12.798Z,75.33
2018-01-10T18:37:41.358Z,78.60
2018-01-10T18:40:11.085Z,56.27
2018-01-10T18:42:46.104Z,61.60
2018-01-10T18:45:14.802Z,71.60
2018-01-10T18:47:49.104Z,69.47
2018-01-10T18:50:18.521Z,56.03
2018-01-10T18:52:46.383Z,61.83
2018-01-10T18:55:14.198Z,83.07
2018-01-10T18:57:42.080Z,44.90
2018-01-10T19:00:13.572Z,69.73
2018-01-10T19:02:42.448Z,63.90
2018-01-10T19:07:44.642Z,55.30
2018-01-10T19:10:13.459Z,65.83
2018-01-10T19:12:42.162Z,53.77
2018-01-10T19:15:10.826Z,44.87
2018-01-10T19:17:38.915Z,37.07
2018-01-10T19:20:06.991Z,72.17
2018-01-10T19:22:36.729Z,64.97
2018-01-10T19:25:06.573Z,54.70
2018-01-10T19:27:34.583Z,63.40
2018-01-10T19:30:02.684Z,59.03
2018-01-10T19:32:31.557Z,60.87
2018-01-10T19:35:00.238Z,57.63
2018-01-10T19:37:28.413Z,71.00
2018-01-10T19:40:02.625Z,72.90
2018-01-10T19:42:30.812Z,63.13
2018-01-10T19:44:59.824Z,64.33
2018-01-10T19:47:44.275Z,80.70
2018-01-10T19:50:13.906Z,50.53
2018-01-10T19:52:43.097Z,62.73
2018-01-10T19:55:12.830Z,49.43
2018-01-10T19:57:41.702Z,56.37
2018-01-10T20:00:09.901Z,58.73
2018-01-10T20:02:47.628Z,46.20
2018-01-10T20:05:19.409Z,69.00
2018-01-10T20:07:47.815Z,73.77
2018-01-10T20:10:26.352Z,53.33
2018-01-10T20:12:54.586Z,56.97
2018-01-10T20:15:24.898Z,54.47
2018-01-10T20:17:54.749Z,46.37
2018-01-10T20:20:27.001Z,56.07
2018-01-10T20:22:55.073Z,39.73
2018-01-10T20:25:25.025Z,44.90
2018-01-10T20:27:53.264Z,43.13
2018-01-10T20:30:27.885Z,37.23
2018-01-10T20:32:58.521Z,35.90
2018-01-10T20:35:27.499Z,39.37
2018-01-10T20:37:59.273Z,41.83
2018-01-10T20:40:27.554Z,34.50
2018-01-10T20:42:57.274Z,45.40
2018-01-10T20:45:25.348Z,41.37
2018-01-10T20:47:54.941Z,32.23
2018-01-10T20:50:23.041Z,34.73
2018-01-10T20:52:51.121Z,34.83
2018-01-10T20:55:19.278Z,50.20
2018-01-10T20:57:47.344Z,41.10
2018-01-10T21:00:15.532Z,30.53
2018-01-10T21:02:43.602Z,32.43
2018-01-10T21:05:12.487Z,34.73
2018-01-10T21:07:44.373Z,43.83
2018-01-10T21:10:14.182Z,37.67
2018-01-10T21:12:42.246Z,47.47
2018-01-10T21:15:10.201Z,59.20
2018-01-10T21:17:38.293Z,56.70
2018-01-10T21:20:06.277Z,72.60
2018-01-10T21:22:34.245Z,38.60
2018-01-10T21:25:02.232Z,40.00
2018-01-10T21:27:31.315Z,72.93
2018-01-10T21:30:01.022Z,30.07
2018-01-10T21:32:37.033Z,53.10
2018-01-10T21:35:06.960Z,96.10
2018-01-10T21:37:41.411Z,48.10
2018-01-10T21:40:10.108Z,77.53
2018-01-10T21:42:43.769Z,61.00
2018-01-10T21:45:11.604Z,66.33
2018-01-10T21:47:45.881Z,49.37
2018-01-10T21:50:16.536Z,61.90
2018-01-10T21:52:44.500Z,74.80
2018-01-10T21:55:12.782Z,75.57
2018-01-10T21:57:48.423Z,55.40
2018-01-10T22:00:16.301Z,50.30
2018-01-10T22:02:45.296Z,74.70
2018-01-10T22:05:13.142Z,55.10
2018-01-10T22:07:43.968Z,64.57
2018-01-10T22:13:03.582Z,56.20
2018-01-10T22:15:33.057Z,59.70
2018-01-10T22:18:00.947Z,72.27
2018-01-10T22:20:28.728Z,80.87
2018-01-10T22:22:58.598Z,59.37
2018-01-10T22:25:27.230Z,75.23
2018-01-10T22:27:55.108Z,62.07
2018-01-10T22:30:22.982Z,67.23
2018-01-10T22:32:52.646Z,67.10
2018-01-10T22:35:29.023Z,91.67
2018-01-10T22:37:59.687Z,58.20
2018-01-10T22:40:33.479Z,73.03
2018-01-10T22:43:02.092Z,58.13
2018-01-10T22:45:30.066Z,66.03
2018-01-10T22:47:58.019Z,58.77
2018-01-10T22:50:25.882Z,81.47
2018-01-10T22:52:53.762Z,50.67
2018-01-10T22:55:23.362Z,67.20
2018-01-10T22:57:51.453Z,58.70
2018-01-10T23:00:27.393Z,36.07
2018-01-10T23:02:57.974Z,57.97
2018-01-10T23:05:25.833Z,62.17
2018-01-10T23:07:53.616Z,28.33
2018-01-10T23:10:31.544Z,75.00
2018-01-10T23:12:59.642Z,54.03
2018-01-10T23:15:27.518Z,46.30
2018-01-10T23:17:55.367Z,80.43
2018-01-10T23:20:23.444Z,57.77
2018-01-10T23:22:51.323Z,19.87
2018-01-10T23:25:22.167Z,66.30
2018-01-10T23:27:50.003Z,89.87
2018-01-10T23:30:22.724Z,42.27
2018-01-10T23:32:50.615Z,44.63
2018-01-10T23:35:20.236Z,40.00
2018-01-10T23:37:50.531Z,41.13
2018-01-10T23:40:26.849Z,25.40
2018-01-10T23:42:57.359Z,43.17
2018-01-10T23:45:25.271Z,26.70
2018-01-10T23:47:55.645Z,30.50
2018-01-10T23:50:24.918Z,35.27
2018-01-10T23:52:52.683Z,41.57
2018-01-10T23:55:21.267Z,28.97
2018-01-10T23:57:49.126Z,32.60
